createdAt,value
2017-01-22T00:00:19.674Z,14.83
2017-01-22T00:00:49.715Z,14.83
2017-01-22T00:01:19.743Z,14.83
2017-01-22T00:01:49.779Z,14.8
2017-01-22T00:02:19.817Z,14.83
2017-01-22T00:02:49.859Z,14.83
2017-01-22T00:03:19.886Z,14.88
2017-01-22T00:03:49.924Z,14.72
2017-01-22T00:04:19.959Z,14.78
2017-01-22T00:04:49.992Z,14.8
2017-01-22T00:05:20.031Z,14.84
2017-01-22T00:05:50.061Z,14.75
2017-01-22T00:06:20.106Z,14.83
2017-01-22T00:06:50.139Z,14.74
2017-01-22T00:07:20.176Z,14.75
2017-01-22T00:07:50.207Z,14.78
2017-01-22T00:08:20.239Z,14.8
2017-01-22T00:08:50.271Z,14.75
2017-01-22T00:09:20.314Z,14.74
2017-01-22T00:09:50.354Z,14.65
2017-01-22T00:10:20.381Z,14.72
2017-01-22T00:10:50.416Z,14.72
2017-01-22T00:11:20.454Z,14.69
2017-01-22T00:11:50.485Z,14.64
2017-01-22T00:12:20.521Z,14.68
2017-01-22T00:12:50.564Z,14.67
2017-01-22T00:13:20.596Z,14.67
2017-01-22T00:13:50.631Z,14.67
2017-01-22T00:14:20.676Z,14.65
2017-01-22T00:14:50.702Z,14.57
2017-01-22T00:15:20.735Z,14.62
2017-01-22T00:15:50.771Z,14.61
2017-01-22T00:16:20.805Z,14.6
2017-01-22T00:16:50.842Z,14.61
2017-01-22T00:17:20.871Z,14.61
2017-01-22T00:17:50.908Z,14.6
2017-01-22T00:18:20.956Z,14.62
2017-01-22T00:18:50.981Z,14.64
2017-01-22T00:19:21.189Z,14.57
2017-01-22T00:19:51.046Z,14.6
2017-01-22T00:20:21.085Z,14.57
2017-01-22T00:20:51.121Z,14.61
2017-01-22T00:21:21.161Z,14.53
2017-01-22T00:21:51.194Z,14.54
2017-01-22T00:22:21.230Z,14.6
2017-01-22T00:22:51.261Z,14.54
2017-01-22T00:23:21.294Z,14.52
2017-01-22T00:23:51.338Z,14.5
2017-01-22T00:24:21.379Z,14.52
2017-01-22T00:24:51.425Z,14.57
2017-01-22T00:25:21.432Z,14.49
2017-01-22T00:25:51.469Z,14.52
2017-01-22T00:26:21.507Z,14.6
2017-01-22T00:26:51.725Z,14.5
2017-01-22T00:27:21.579Z,14.49
2017-01-22T00:27:51.612Z,14.42
2017-01-22T00:28:21.651Z,14.44
2017-01-22T00:28:51.686Z,14.46
2017-01-22T00:29:21.723Z,14.47
2017-01-22T00:29:51.774Z,14.44
2017-01-22T00:30:21.812Z,14.42
2017-01-22T00:30:51.835Z,14.5
2017-01-22T00:31:21.868Z,14.42
2017-01-22T00:31:51.895Z,14.44
2017-01-22T00:32:21.936Z,14.43
2017-01-22T00:32:51.973Z,14.38
2017-01-22T00:33:22.001Z,14.38
2017-01-22T00:33:52.043Z,14.38
2017-01-22T00:34:22.071Z,14.43
2017-01-22T00:34:52.106Z,14.44
2017-01-22T00:35:22.146Z,14.39
2017-01-22T00:35:52.183Z,14.42
2017-01-22T00:36:22.217Z,14.38
2017-01-22T00:36:52.245Z,14.46
2017-01-22T00:37:22.280Z,14.38
2017-01-22T00:37:52.315Z,14.42
2017-01-22T00:38:22.356Z,14.37
2017-01-22T00:38:52.391Z,14.42
2017-01-22T00:39:22.432Z,14.43
2017-01-22T00:39:52.461Z,14.37
2017-01-22T00:40:22.494Z,14.35
2017-01-22T00:40:52.530Z,14.29
2017-01-22T00:41:22.559Z,14.34
2017-01-22T00:41:52.597Z,14.34
2017-01-22T00:42:22.631Z,14.35
2017-01-22T00:42:52.859Z,14.25
2017-01-22T00:43:22.709Z,14.32
2017-01-22T00:43:52.734Z,14.38
2017-01-22T00:44:22.790Z,14.2
2017-01-22T00:44:52.808Z,14.32
2017-01-22T00:45:22.843Z,14.32
2017-01-22T00:45:52.885Z,14.31
2017-01-22T00:46:22.934Z,14.29
2017-01-22T00:46:53.127Z,14.25
2017-01-22T00:47:22.990Z,14.21
2017-01-22T00:47:53.020Z,14.17
2017-01-22T00:48:23.059Z,14.2
2017-01-22T00:48:53.088Z,14.14
2017-01-22T00:49:23.130Z,14.17
2017-01-22T00:49:53.159Z,14.19
2017-01-22T00:50:23.196Z,14.16
2017-01-22T00:50:53.238Z,14.19
2017-01-22T00:51:23.269Z,14.19
2017-01-22T00:51:53.305Z,14.14
2017-01-22T00:52:23.336Z,14.16
2017-01-22T00:52:53.369Z,14.21
2017-01-22T00:53:23.409Z,14.13
2017-01-22T00:53:53.440Z,14.16
2017-01-22T00:54:23.492Z,14.16
2017-01-22T00:54:53.522Z,14.2
2017-01-22T00:55:23.562Z,14.21
2017-01-22T00:55:53.590Z,14.17
2017-01-22T00:56:23.729Z,14.13
2017-01-22T00:56:53.660Z,14.2
2017-01-22T00:57:23.697Z,14.12
2017-01-22T00:57:53.726Z,14.14
2017-01-22T00:58:23.754Z,14.07
2017-01-22T00:58:53.799Z,14.14
2017-01-22T00:59:23.868Z,14.02
2017-01-22T00:59:53.858Z,14.06
2017-01-22T01:00:23.896Z,14.04
2017-01-22T01:00:53.928Z,14.01
2017-01-22T01:01:23.971Z,13.99
2017-01-22T01:01:54.012Z,13.98
2017-01-22T01:02:24.056Z,14.02
2017-01-22T01:06:48.639Z,13.98
2017-01-22T07:16:09.264Z,11.39
2017-01-22T07:16:39.298Z,11.38
2017-01-22T07:17:09.338Z,11.39
2017-01-22T07:17:39.359Z,11.47
2017-01-22T07:18:09.395Z,11.5
2017-01-22T07:18:53.103Z,11.52
2017-01-22T07:19:23.111Z,11.53
2017-01-22T07:19:53.144Z,11.52
2017-01-22T07:20:23.189Z,11.56
2017-01-22T07:20:53.334Z,11.41
2017-01-22T07:21:23.257Z,11.31
2017-01-22T07:21:53.282Z,11.29
2017-01-22T07:22:23.320Z,11.24
2017-01-22T07:22:53.356Z,11.17
2017-01-22T07:23:23.386Z,11.19
2017-01-22T07:23:53.424Z,11.17
2017-01-22T07:24:23.459Z,11.19
2017-01-22T07:24:53.490Z,11.16
2017-01-22T07:25:23.524Z,11.11
2017-01-22T07:25:53.561Z,11.03
2017-01-22T07:26:23.594Z,11.02
2017-01-22T07:26:53.702Z,11.1
2017-01-22T07:27:23.706Z,11.01
2017-01-22T07:27:53.783Z,11.06
2017-01-22T07:28:23.739Z,11.02
2017-01-22T07:28:53.768Z,11.01
2017-01-22T07:29:23.796Z,10.98
2017-01-22T07:29:53.834Z,10.92
2017-01-22T07:30:23.866Z,10.95
2017-01-22T07:30:53.904Z,11.01
2017-01-22T07:31:23.967Z,10.96
2017-01-22T07:31:53.971Z,10.92
2017-01-22T07:32:24.015Z,11.02
2017-01-22T07:32:54.035Z,10.95
2017-01-22T07:33:24.074Z,11.02
2017-01-22T07:33:54.139Z,10.96
2017-01-22T07:34:24.139Z,10.95
2017-01-22T07:34:54.174Z,10.96
2017-01-22T07:35:24.388Z,10.88
2017-01-22T07:35:54.246Z,10.92
2017-01-22T07:36:24.273Z,10.89
2017-01-22T07:36:54.310Z,10.88
2017-01-22T07:37:24.351Z,10.84
2017-01-22T07:37:54.396Z,10.92
2017-01-22T07:38:24.414Z,10.8
2017-01-22T07:38:54.449Z,10.86
2017-01-22T07:39:24.515Z,10.94
2017-01-22T07:39:54.523Z,10.96
2017-01-22T07:40:24.573Z,10.91
2017-01-22T07:40:55.298Z,10.83
2017-01-22T07:41:24.617Z,10.8
2017-01-22T07:41:54.656Z,10.83
2017-01-22T07:42:24.694Z,10.88
2017-01-22T07:42:54.768Z,10.88
2017-01-22T07:43:27.152Z,10.73
2017-01-22T07:43:55.990Z,10.73
2017-01-22T07:44:25.205Z,10.81
2017-01-22T07:44:58.662Z,10.73
2017-01-22T07:45:25.208Z,10.8
2017-01-22T07:45:55.537Z,10.7
2017-01-22T07:46:29.834Z,10.76
2017-01-22T07:46:55.000Z,10.73
2017-01-22T07:47:26.274Z,10.81
2017-01-22T07:47:55.067Z,10.74
2017-01-22T07:48:25.100Z,10.74
2017-01-22T07:48:55.198Z,10.73
2017-01-22T07:49:25.181Z,10.71
2017-01-22T07:49:56.548Z,10.7
2017-01-22T07:50:25.235Z,10.73
2017-01-22T07:50:55.543Z,10.66
2017-01-22T07:51:27.936Z,10.63
2017-01-22T07:51:55.334Z,10.71
2017-01-22T07:52:26.393Z,10.68
2017-01-22T07:52:55.555Z,10.71
2017-01-22T07:53:25.437Z,10.66
2017-01-22T07:53:55.478Z,10.65
2017-01-22T07:54:25.531Z,10.59
2017-01-22T07:54:55.540Z,10.65
2017-01-22T07:55:27.367Z,10.65
2017-01-22T07:55:55.615Z,10.63
2017-01-22T07:56:39.611Z,10.58
2017-01-22T07:57:18.628Z,10.58
2017-01-22T07:57:37.973Z,10.59
2017-01-22T07:58:00.677Z,10.58
2017-01-22T07:58:34.119Z,10.63
2017-01-22T07:59:39.722Z,10.59
2017-01-22T08:00:22.101Z,10.58
2017-01-22T08:00:36.837Z,10.62
2017-01-22T08:01:15.529Z,10.52
2017-01-22T08:01:36.518Z,10.43
2017-01-22T08:02:10.040Z,10.43
2017-01-22T08:02:36.545Z,10.46
2017-01-22T08:03:44.832Z,10.46
2017-01-22T08:04:15.160Z,10.52
2017-01-22T08:04:43.823Z,10.43
2017-01-22T08:05:13.903Z,10.47
2017-01-22T11:11:30.929Z,14.67
2017-01-22T11:12:00.129Z,14.71
2017-01-22T11:12:30.231Z,14.71
2017-01-22T11:13:00.186Z,14.71
2017-01-22T11:13:30.265Z,14.65
2017-01-22T11:14:00.358Z,14.68
2017-01-22T11:14:30.530Z,14.67
2017-01-22T11:15:00.332Z,14.69
2017-01-22T11:15:30.395Z,14.65
2017-01-22T11:16:00.791Z,14.61
2017-01-22T11:16:30.584Z,14.6
2017-01-22T11:17:00.635Z,14.6
2017-01-22T11:17:30.771Z,14.56
2017-01-22T11:18:00.855Z,14.6
2017-01-22T11:18:30.654Z,14.62
2017-01-22T11:19:00.606Z,14.6
2017-01-22T11:19:30.910Z,14.61
2017-01-22T11:20:00.683Z,14.61
2017-01-22T11:20:30.810Z,14.61
2017-01-22T11:21:01.176Z,14.6
2017-01-22T11:21:31.056Z,14.62
2017-01-22T11:22:00.847Z,14.56
2017-01-22T11:22:30.895Z,14.6
2017-01-22T11:23:00.894Z,14.64
2017-01-22T11:23:31.199Z,14.64
2017-01-22T11:24:01.184Z,14.57
2017-01-22T11:24:31.006Z,14.62
2017-01-22T11:25:01.373Z,14.56
2017-01-22T11:25:31.567Z,14.57
2017-01-22T11:26:01.452Z,14.62
2017-01-22T11:26:31.188Z,14.61
2017-01-22T11:27:01.271Z,14.61
2017-01-22T11:27:31.210Z,14.62
2017-01-22T11:28:01.273Z,14.65
2017-01-22T11:28:31.287Z,14.61
2017-01-22T11:29:01.392Z,14.54
2017-01-22T11:29:31.707Z,14.62
2017-01-22T11:30:01.394Z,14.54
2017-01-22T11:30:31.437Z,14.64
2017-01-22T11:31:01.738Z,14.65
2017-01-22T11:31:31.842Z,14.6
2017-01-22T11:32:01.598Z,14.56
2017-01-22T11:32:31.794Z,14.54
2017-01-22T11:33:01.606Z,14.61
2017-01-22T11:33:31.613Z,14.54
2017-01-22T11:34:01.653Z,14.57
2017-01-22T11:34:31.685Z,14.53
2017-01-22T11:35:01.736Z,14.57
2017-01-22T11:35:31.972Z,14.61
2017-01-22T11:36:02.412Z,14.54
2017-01-22T11:36:31.829Z,14.54
2017-01-22T11:37:01.857Z,14.61
2017-01-22T11:37:32.116Z,14.53
2017-01-22T11:38:01.934Z,14.53
2017-01-22T11:38:32.153Z,14.56
2017-01-22T11:39:02.060Z,14.57
2017-01-22T11:39:32.072Z,14.62
2017-01-22T11:40:02.565Z,14.57
2017-01-22T11:40:32.319Z,14.57
2017-01-22T11:41:04.059Z,14.56
2017-01-22T11:41:32.200Z,14.53
2017-01-22T11:42:02.276Z,14.61
2017-01-22T11:42:32.356Z,14.61
2017-01-22T11:43:02.286Z,14.57
2017-01-22T11:43:32.407Z,14.49
2017-01-22T11:44:02.422Z,14.47
2017-01-22T11:44:32.393Z,14.53
2017-01-22T11:45:02.508Z,14.54
2017-01-22T11:45:32.644Z,14.49
2017-01-22T11:46:02.521Z,14.61
2017-01-22T11:46:32.529Z,14.47
2017-01-22T11:47:02.818Z,14.53
2017-01-22T11:47:32.793Z,14.54
2017-01-22T11:48:02.643Z,14.53
2017-01-22T11:48:32.667Z,14.43
2017-01-22T11:49:03.117Z,14.44
2017-01-22T11:49:33.025Z,14.52
2017-01-22T11:50:03.817Z,14.44
2017-01-22T11:50:33.395Z,14.42
2017-01-22T11:51:03.357Z,14.5
2017-01-22T11:51:33.964Z,14.47
2017-01-22T11:52:02.935Z,14.52
2017-01-22T11:52:33.148Z,14.44
2017-01-22T11:53:03.082Z,14.44
2017-01-22T11:53:33.071Z,14.46
2017-01-22T11:54:03.053Z,14.44
2017-01-22T11:54:33.187Z,14.38
2017-01-22T11:55:03.168Z,14.34
2017-01-22T11:55:33.182Z,14.37
2017-01-22T11:56:03.190Z,14.38
2017-01-22T11:56:33.518Z,14.37
2017-01-22T11:57:03.281Z,14.42
2017-01-22T11:57:33.300Z,14.47
2017-01-22T11:58:03.505Z,14.38
2017-01-22T11:58:33.369Z,14.43
2017-01-22T11:59:03.535Z,14.39
2017-01-22T11:59:33.438Z,14.39
2017-01-22T12:00:03.474Z,14.52
2017-01-22T12:00:33.719Z,14.37
2017-01-22T12:01:03.719Z,14.38
2017-01-22T12:01:33.643Z,14.35
2017-01-22T12:02:03.615Z,14.43
2017-01-22T12:02:33.652Z,14.38
2017-01-22T12:03:03.961Z,14.47
2017-01-22T12:03:33.798Z,14.39
2017-01-22T12:04:03.873Z,14.39
2017-01-22T12:04:33.911Z,14.43
2017-01-22T12:05:03.881Z,14.38
2017-01-22T12:05:33.860Z,14.47
2017-01-22T12:06:03.903Z,14.44
2017-01-22T12:06:33.924Z,14.39
2017-01-22T12:07:04.132Z,14.42
2017-01-22T12:07:34.006Z,14.35
2017-01-22T12:08:04.086Z,14.38
2017-01-22T12:08:34.063Z,14.39
2017-01-22T12:09:04.103Z,14.43
2017-01-22T12:09:34.218Z,14.44
2017-01-22T12:10:04.225Z,14.43
2017-01-22T12:10:34.210Z,14.38
2017-01-22T12:11:04.308Z,14.44
2017-01-22T12:11:34.374Z,14.38
2017-01-22T12:12:04.310Z,14.44
2017-01-22T12:12:34.444Z,14.39
2017-01-22T12:13:04.500Z,14.43
2017-01-22T12:13:34.432Z,14.43
2017-01-22T12:14:04.487Z,14.38
2017-01-22T12:14:34.507Z,14.43
2017-01-22T12:15:04.540Z,14.37
2017-01-22T12:15:34.583Z,14.37
2017-01-22T12:16:04.636Z,14.37
2017-01-22T12:16:34.624Z,14.43
2017-01-22T12:17:04.668Z,14.37
2017-01-22T12:17:34.694Z,14.38
2017-01-22T12:18:04.735Z,14.39
2017-01-22T12:18:34.791Z,14.43
2017-01-22T12:19:04.864Z,14.39
2017-01-22T12:19:34.870Z,14.42
2017-01-22T12:20:04.885Z,14.38
2017-01-22T12:20:34.907Z,14.42
2017-01-22T12:21:04.958Z,14.43
2017-01-22T12:21:40.190Z,14.32
2017-01-22T12:22:16.202Z,14.39
2017-01-22T12:22:43.691Z,14.42
2017-01-22T12:23:11.830Z,14.43
2017-01-22T12:23:38.434Z,14.39
2017-01-22T12:24:05.150Z,14.38
2017-01-22T12:24:38.613Z,14.37
2017-01-22T12:25:09.162Z,14.39
2017-01-22T12:25:40.249Z,14.37
2017-01-22T12:26:06.586Z,14.35
2017-01-22T12:26:38.178Z,14.37
2017-01-22T12:27:20.342Z,14.37
2017-01-22T12:27:37.582Z,14.37
2017-01-22T12:28:09.027Z,14.37
2017-01-22T12:28:36.041Z,14.38
2017-01-22T12:29:09.306Z,14.37
2017-01-22T12:29:40.735Z,14.42
2017-01-22T12:30:06.010Z,14.43
2017-01-22T12:30:35.856Z,14.39
2017-01-22T12:31:06.772Z,14.38
2017-01-22T12:31:36.136Z,14.43
2017-01-22T12:32:05.713Z,14.42
2017-01-22T12:32:35.745Z,14.39
2017-01-22T12:33:05.781Z,14.37
2017-01-22T12:33:35.823Z,14.35
2017-01-22T12:34:05.857Z,14.46
2017-01-22T12:34:35.886Z,14.44
2017-01-22T12:35:05.965Z,14.39
2017-01-22T12:35:35.952Z,14.39
2017-01-22T12:36:05.994Z,14.49
2017-01-22T12:36:36.029Z,14.43
2017-01-22T12:37:06.086Z,14.44
2017-01-22T12:37:36.106Z,14.39
2017-01-22T12:38:06.133Z,14.44
2017-01-22T12:38:36.166Z,14.39
2017-01-22T12:39:06.202Z,14.39
2017-01-22T12:39:36.236Z,14.44
2017-01-22T12:40:06.303Z,14.39
2017-01-22T12:40:36.311Z,14.37
2017-01-22T12:41:06.364Z,14.39
2017-01-22T12:41:36.390Z,14.49
2017-01-22T12:42:06.413Z,14.49
2017-01-22T12:42:36.449Z,14.42
2017-01-22T12:43:06.488Z,14.38
2017-01-22T12:43:36.521Z,14.44
2017-01-22T12:44:06.565Z,14.46
2017-01-22T12:44:36.589Z,14.43
2017-01-22T12:45:06.626Z,14.38
2017-01-22T12:45:36.664Z,14.44
2017-01-22T12:46:06.706Z,14.38
2017-01-22T12:46:36.744Z,14.44
2017-01-22T12:47:06.768Z,14.49
2017-01-22T12:47:36.802Z,14.47
2017-01-22T12:48:06.826Z,14.44
2017-01-22T12:48:36.872Z,14.49
2017-01-22T12:49:06.905Z,14.43
2017-01-22T12:49:36.937Z,14.43
2017-01-22T12:50:06.977Z,14.44
2017-01-22T12:50:37.007Z,14.5
2017-01-22T12:51:07.041Z,14.47
2017-01-22T12:51:37.425Z,14.49
2017-01-22T12:52:07.409Z,14.42
2017-01-22T12:52:37.161Z,14.44
2017-01-22T12:53:07.190Z,14.46
2017-01-22T12:53:37.215Z,14.47
2017-01-22T12:54:07.254Z,14.5
2017-01-22T12:54:37.286Z,14.5
2017-01-22T12:55:07.350Z,14.5
2017-01-22T12:55:37.353Z,14.47
2017-01-22T12:56:07.392Z,14.47
2017-01-22T12:56:37.428Z,14.49
2017-01-22T12:57:07.463Z,14.43
2017-01-22T12:57:37.503Z,14.39
2017-01-22T12:58:07.568Z,14.44
2017-01-22T12:58:37.605Z,14.47
2017-01-22T12:59:07.612Z,14.46
2017-01-22T12:59:43.109Z,14.47
2017-01-22T13:00:07.675Z,14.46
2017-01-22T13:00:37.710Z,14.52
2017-01-22T13:01:10.390Z,14.5
2017-01-22T13:01:40.677Z,14.49
2017-01-22T13:02:07.824Z,14.47
2017-01-22T13:02:37.855Z,14.52
2017-01-22T13:03:07.897Z,14.5
2017-01-22T13:03:37.926Z,14.5
2017-01-22T13:04:07.953Z,14.47
2017-01-22T13:04:37.991Z,14.49
2017-01-22T13:05:08.027Z,14.49
2017-01-22T13:05:38.058Z,14.42
2017-01-22T13:06:08.093Z,14.47
2017-01-22T13:06:38.131Z,14.56
2017-01-22T13:07:18.464Z,14.64
2017-01-22T13:07:38.816Z,14.56
2017-01-22T13:08:09.562Z,14.6
2017-01-22T13:08:38.337Z,14.62
2017-01-22T13:09:09.379Z,14.74
2017-01-22T13:09:40.316Z,14.65
2017-01-22T13:10:08.377Z,14.71
2017-01-22T13:10:40.549Z,14.57
2017-01-22T13:11:08.443Z,14.61
2017-01-22T13:12:17.402Z,14.62
2017-01-22T13:12:38.548Z,14.57
2017-01-22T13:13:08.581Z,14.61
2017-01-22T13:13:38.625Z,14.54
2017-01-22T13:14:08.656Z,14.52
2017-01-22T13:14:38.709Z,14.6
2017-01-22T13:15:08.770Z,14.56
2017-01-22T13:15:38.794Z,14.53
2017-01-22T13:16:08.790Z,14.52
2017-01-22T13:16:38.829Z,14.46
2017-01-22T13:17:08.893Z,14.57
2017-01-22T13:17:38.893Z,14.56
2017-01-22T13:18:08.931Z,14.6
2017-01-22T13:18:38.972Z,14.56
2017-01-22T13:19:09.022Z,14.52
2017-01-22T13:19:39.046Z,14.6
2017-01-22T13:20:09.087Z,14.54
2017-01-22T13:20:39.110Z,14.56
2017-01-22T13:21:09.154Z,14.64
2017-01-22T13:21:39.202Z,14.6
2017-01-22T13:22:09.222Z,14.6
2017-01-22T13:22:40.034Z,14.65
2017-01-22T13:23:09.285Z,14.67
2017-01-22T13:23:39.333Z,14.68
2017-01-22T13:24:09.355Z,14.68
2017-01-22T13:24:39.392Z,14.65
2017-01-22T13:25:09.436Z,14.68
2017-01-22T13:25:40.265Z,14.65
2017-01-22T13:26:09.508Z,14.72
2017-01-22T13:26:39.565Z,14.78
2017-01-22T13:27:11.074Z,14.81
2017-01-22T13:27:40.100Z,15.01
2017-01-22T13:28:10.076Z,15.12
2017-01-22T13:28:40.217Z,15.13
2017-01-22T13:29:09.829Z,15.05
2017-01-22T13:29:39.739Z,15.05
2017-01-22T13:30:10.626Z,15.02
2017-01-22T13:30:39.931Z,14.9
2017-01-22T13:31:09.879Z,14.93
2017-01-22T13:31:39.883Z,14.81
2017-01-22T13:32:09.974Z,14.84
2017-01-22T13:32:41.061Z,14.83
2017-01-22T13:33:10.200Z,14.88
2017-01-22T13:33:40.139Z,14.88
2017-01-22T13:34:10.114Z,14.83
2017-01-22T13:34:40.199Z,14.87
2017-01-22T13:35:11.746Z,14.83
2017-01-22T13:35:42.375Z,14.83
2017-01-22T13:36:10.941Z,14.8
2017-01-22T13:36:40.441Z,14.74
2017-01-22T13:37:10.897Z,14.74
2017-01-22T13:37:40.299Z,14.72
2017-01-22T13:38:10.334Z,14.68
2017-01-22T13:38:40.792Z,14.69
2017-01-22T13:39:10.903Z,14.72
2017-01-22T13:39:40.444Z,14.67
2017-01-22T13:40:10.665Z,14.69
2017-01-22T13:40:40.706Z,14.62
2017-01-22T13:41:10.906Z,14.61
2017-01-22T13:41:40.833Z,14.56
2017-01-22T13:42:10.893Z,14.57
2017-01-22T13:42:40.926Z,14.56
2017-01-22T13:43:10.767Z,14.54
2017-01-22T13:43:40.792Z,14.52
2017-01-22T13:44:11.341Z,14.6
2017-01-22T13:44:41.380Z,14.53
2017-01-22T13:45:11.886Z,14.42
2017-01-22T13:45:40.963Z,14.47
2017-01-22T13:46:10.945Z,14.46
2017-01-22T13:46:41.223Z,14.43
2017-01-22T13:47:11.208Z,14.47
2017-01-22T13:47:41.001Z,14.42
2017-01-22T13:48:12.585Z,14.5
2017-01-22T13:48:41.066Z,14.44
2017-01-22T13:49:11.472Z,14.39
2017-01-22T13:49:41.282Z,14.44
2017-01-22T13:50:11.339Z,14.47
2017-01-22T13:50:41.651Z,14.52
2017-01-22T13:51:11.412Z,14.49
2017-01-22T13:51:42.289Z,14.39
2017-01-22T13:52:11.602Z,14.43
2017-01-22T13:52:41.512Z,14.37
2017-01-22T13:53:11.481Z,14.38
2017-01-22T13:53:41.522Z,14.43
2017-01-22T13:54:11.461Z,14.43
2017-01-22T13:54:41.489Z,14.43
2017-01-22T13:55:11.521Z,14.39
2017-01-22T13:55:41.810Z,14.47
2017-01-22T13:56:11.613Z,14.43
2017-01-22T13:56:41.627Z,14.37
2017-01-22T13:57:11.978Z,14.38
2017-01-22T13:57:41.694Z,14.42
2017-01-22T13:58:11.737Z,14.38
2017-01-22T13:58:41.764Z,14.43
2017-01-22T13:59:11.806Z,14.47
2017-01-22T13:59:41.974Z,14.39
2017-01-22T14:00:12.584Z,14.42
2017-01-22T14:00:41.911Z,14.39
2017-01-22T14:01:11.939Z,14.39
2017-01-22T14:01:42.336Z,14.35
2017-01-22T14:02:12.010Z,14.35
2017-01-22T14:02:43.449Z,14.38
2017-01-22T14:03:12.079Z,14.35
2017-01-22T14:03:42.114Z,14.37
2017-01-22T14:04:12.712Z,14.31
2017-01-22T14:04:42.509Z,14.34
2017-01-22T14:05:12.220Z,14.27
2017-01-22T14:05:42.491Z,14.34
2017-01-22T14:06:13.009Z,14.32
2017-01-22T14:06:42.419Z,14.34
2017-01-22T14:07:13.735Z,14.31
2017-01-22T14:07:42.403Z,14.24
2017-01-22T14:08:12.426Z,14.32
2017-01-22T14:08:42.715Z,14.31
2017-01-22T14:09:13.226Z,14.37
2017-01-22T14:09:43.397Z,14.21
2017-01-22T14:10:12.570Z,14.29
2017-01-22T14:10:42.809Z,14.21
2017-01-22T14:11:12.650Z,14.2
2017-01-22T14:11:42.881Z,14.16
2017-01-22T14:12:12.707Z,14.21
2017-01-22T14:12:43.770Z,14.16
2017-01-22T14:13:12.787Z,14.17
2017-01-22T14:13:42.820Z,14.17
2017-01-22T14:14:12.892Z,14.13
2017-01-22T14:14:42.927Z,14.16
2017-01-22T14:15:14.141Z,14.21
2017-01-22T14:15:43.114Z,14.21
2017-01-22T14:16:12.987Z,14.17
2017-01-22T14:16:43.025Z,14.16
2017-01-22T14:17:13.734Z,14.14
2017-01-22T14:17:43.638Z,14.14
2017-01-22T14:18:13.189Z,14.13
2017-01-22T14:18:43.683Z,14.17
2017-01-22T14:19:13.318Z,14.16
2017-01-22T14:19:43.251Z,14.13
2017-01-22T14:20:13.487Z,14.14
2017-01-22T14:20:43.880Z,14.14
2017-01-22T14:21:13.342Z,14.09
2017-01-22T14:21:44.348Z,14.14
2017-01-22T14:22:14.227Z,14.07
2017-01-22T14:22:43.694Z,14.13
2017-01-22T14:23:13.480Z,14.07
2017-01-22T14:23:43.512Z,14.01
2017-01-22T14:24:13.550Z,14.1
2017-01-22T14:24:43.586Z,14.02
2017-01-22T14:25:13.624Z,14.06
2017-01-22T14:25:43.768Z,14.02
2017-01-22T14:26:13.832Z,14.04
2017-01-22T14:26:44.999Z,14.06
2017-01-22T14:27:14.557Z,14.02
2017-01-22T14:27:43.897Z,14.07
2017-01-22T14:28:15.391Z,14.01
2017-01-22T14:28:44.868Z,14.06
2017-01-22T14:29:14.687Z,14.01
2017-01-22T14:29:43.961Z,14.02
2017-01-22T14:30:13.984Z,14.02
2017-01-22T14:30:44.760Z,13.98
2017-01-22T14:31:14.181Z,14.06
2017-01-22T14:31:44.215Z,14.06
2017-01-22T14:32:14.102Z,13.99
2017-01-22T14:32:45.014Z,13.99
2017-01-22T14:33:14.996Z,13.99
2017-01-22T14:33:44.714Z,13.99
2017-01-22T14:34:14.258Z,13.96
2017-01-22T14:34:44.524Z,13.98
2017-01-22T14:35:15.032Z,13.98
2017-01-22T14:35:44.907Z,14.02
2017-01-22T14:36:14.921Z,13.96
2017-01-22T14:36:44.656Z,13.94
2017-01-22T14:37:14.458Z,13.98
2017-01-22T14:37:44.615Z,14.02
2017-01-22T14:38:14.850Z,13.95
2017-01-22T14:38:45.223Z,13.92
2017-01-22T14:39:15.805Z,13.96
2017-01-22T14:39:44.978Z,13.92
2017-01-22T14:40:14.826Z,13.94
2017-01-22T14:40:44.737Z,13.89
2017-01-22T14:41:14.830Z,13.91
2017-01-22T14:41:45.231Z,13.96
2017-01-22T14:42:14.861Z,13.92
2017-01-22T14:42:44.908Z,13.91
2017-01-22T14:43:15.585Z,13.88
2017-01-22T14:43:44.955Z,13.89
2017-01-22T14:44:15.539Z,13.89
2017-01-22T14:44:45.033Z,13.94
2017-01-22T14:45:15.124Z,13.95
2017-01-22T14:45:45.667Z,13.92
2017-01-22T14:46:16.069Z,13.92
2017-01-22T14:46:45.125Z,13.91
2017-01-22T14:47:15.620Z,13.91
2017-01-22T14:47:46.279Z,13.88
2017-01-22T14:48:16.529Z,13.8
2017-01-22T14:48:45.425Z,13.84
2017-01-22T14:49:15.411Z,13.83
2017-01-22T14:49:45.503Z,13.84
2017-01-22T14:50:15.363Z,13.81
2017-01-22T14:50:45.900Z,13.84
2017-01-22T14:51:15.425Z,13.87
2017-01-22T14:51:45.920Z,13.81
2017-01-22T14:52:15.557Z,13.88
2017-01-22T14:52:46.273Z,13.87
2017-01-22T14:53:15.868Z,13.8
2017-01-22T14:53:46.044Z,13.81
2017-01-22T14:54:15.747Z,13.83
2017-01-22T14:54:46.152Z,13.79
2017-01-22T14:55:16.111Z,13.89
2017-01-22T14:55:45.877Z,13.81
2017-01-22T14:56:15.890Z,13.83
2017-01-22T14:56:45.948Z,13.79
2017-01-22T14:57:16.328Z,13.83
2017-01-22T14:57:46.002Z,13.79
2017-01-22T14:59:36.523Z,13.8
2017-01-22T14:59:46.639Z,13.84
2017-01-22T15:00:17.425Z,13.83
2017-01-22T15:00:46.358Z,13.84
2017-01-22T15:01:16.795Z,13.76
2017-01-22T15:01:46.867Z,13.79
2017-01-22T15:02:16.486Z,13.79
2017-01-22T15:02:46.846Z,13.79
2017-01-22T15:03:16.310Z,13.81
2017-01-22T15:03:46.761Z,13.74
2017-01-22T15:04:16.569Z,13.74
2017-01-22T15:04:46.393Z,13.8
2017-01-22T15:05:16.625Z,13.79
2017-01-22T15:05:46.791Z,13.79
2017-01-22T15:06:16.753Z,13.76
2017-01-22T15:06:46.770Z,13.73
2017-01-22T15:07:16.866Z,13.74
2017-01-22T15:07:46.794Z,13.73
2017-01-22T15:08:16.615Z,13.76
2017-01-22T15:08:46.645Z,13.71
2017-01-22T15:09:16.678Z,13.76
2017-01-22T15:09:46.835Z,13.7
2017-01-22T15:10:16.755Z,13.74
2017-01-22T15:10:46.782Z,13.7
2017-01-22T15:11:17.152Z,13.69
2017-01-22T15:11:47.858Z,13.79
2017-01-22T15:12:16.892Z,13.73
2017-01-22T15:12:46.916Z,13.69
2017-01-22T15:13:17.926Z,13.65
2017-01-22T15:13:47.054Z,13.63
2017-01-22T15:14:17.021Z,13.67
2017-01-22T15:14:47.053Z,13.63
2017-01-22T15:15:17.661Z,13.58
2017-01-22T15:15:47.126Z,13.65
2017-01-22T15:16:17.173Z,13.67
2017-01-22T15:16:47.963Z,13.62
2017-01-22T15:17:18.096Z,13.7
2017-01-22T15:17:47.270Z,13.73
2017-01-22T15:18:17.302Z,13.63
2017-01-22T15:18:47.344Z,13.67
2017-01-22T15:19:18.211Z,13.59
2017-01-22T15:19:48.032Z,13.58
2017-01-22T15:20:17.441Z,13.56
2017-01-22T15:20:47.474Z,13.63
2017-01-22T15:21:17.519Z,13.63
2017-01-22T15:21:47.560Z,13.62
2017-01-22T15:22:18.002Z,13.62
2017-01-22T15:22:47.980Z,13.61
2017-01-22T15:23:17.653Z,13.59
2017-01-22T15:23:47.696Z,13.58
2017-01-22T15:24:17.722Z,13.59
2017-01-22T15:24:48.414Z,13.56
2017-01-22T15:25:17.787Z,13.62
2017-01-22T15:25:47.828Z,13.55
2017-01-22T15:26:17.855Z,13.46
2017-01-22T15:26:48.794Z,13.44
2017-01-22T15:27:18.365Z,13.44
2017-01-22T15:27:47.961Z,13.43
2017-01-22T15:28:17.992Z,13.55
2017-01-22T15:28:48.459Z,13.38
2017-01-22T15:29:18.830Z,13.52
2017-01-22T15:29:48.800Z,13.54
2017-01-22T15:30:18.134Z,13.54
2017-01-22T15:30:48.169Z,13.49
2017-01-22T15:31:18.669Z,13.54
2017-01-22T15:31:48.280Z,13.54
2017-01-22T15:32:18.276Z,13.54
2017-01-22T15:32:48.304Z,13.54
2017-01-22T15:33:18.345Z,13.43
2017-01-22T15:33:49.285Z,13.54
2017-01-22T15:34:18.415Z,13.46
2017-01-22T15:34:48.476Z,13.46
2017-01-22T15:35:18.476Z,13.44
2017-01-22T15:35:48.705Z,13.43
2017-01-22T15:36:19.502Z,13.51
2017-01-22T15:36:49.434Z,13.49
2017-01-22T15:37:18.621Z,13.41
2017-01-22T15:37:48.684Z,13.51
2017-01-22T15:38:19.479Z,13.46
2017-01-22T15:38:49.706Z,13.43
2017-01-22T15:39:18.763Z,13.44
2017-01-22T15:39:48.794Z,13.41
2017-01-22T15:40:19.419Z,13.41
2017-01-22T15:40:49.275Z,13.43
2017-01-22T15:41:18.899Z,13.49
2017-01-22T15:41:49.080Z,13.4
2017-01-22T15:42:19.771Z,13.47
2017-01-22T15:42:49.626Z,13.41
2017-01-22T15:43:19.036Z,13.41
2017-01-22T15:43:49.067Z,13.43
2017-01-22T15:44:19.111Z,13.38
2017-01-22T15:44:49.139Z,13.43
2017-01-22T15:45:19.940Z,13.44
2017-01-22T15:45:49.213Z,13.38
2017-01-22T15:46:19.248Z,13.38
2017-01-22T15:46:49.388Z,13.38
2017-01-22T15:47:20.165Z,13.43
2017-01-22T15:47:49.425Z,13.43
2017-01-22T15:48:19.386Z,13.44
2017-01-22T15:48:50.066Z,13.4
2017-01-22T15:49:19.460Z,13.44